TimeEDT,TemperatureF,Dew PointF,Humidity,Sea Level PressureIn,VisibilityMPH,Wind Direction,Wind SpeedMPH,Gust SpeedMPH,PrecipitationIn,Events,Conditions,WindDirDegrees,DateUTC
12:54 AM,48.9,35.1,59,30.34,10.0,NNE,5.8,-,N/A,,Clear,20,2013-05-01 04:54:00
1:54 AM,48.0,35.1,61,30.32,10.0,NE,6.9,-,N/A,,Clear,50,2013-05-01 05:54:00
2:54 AM,48.0,36.0,63,30.34,10.0,NE,6.9,-,N/A,,Clear,50,2013-05-01 06:54:00
3:54 AM,48.0,34.0,58,30.35,10.0,NE,5.8,-,N/A,,Clear,40,2013-05-01 07:54:00
4:54 AM,46.9,35.1,63,30.36,10.0,NNE,4.6,-,N/A,,Partly Cloudy,30,2013-05-01 08:54:00
5:54 AM,46.9,35.1,63,30.37,10.0,NE,5.8,-,N/A,,Partly Cloudy,40,2013-05-01 09:54:00
6:54 AM,50.0,36.0,59,30.39,10.0,NE,8.1,-,N/A,,Scattered Clouds,40,2013-05-01 10:54:00
7:54 AM,53.1,36.0,52,30.41,10.0,NE,11.5,-,N/A,,Partly Cloudy,50,2013-05-01 11:54:00
8:54 AM,57.0,35.1,44,30.42,10.0,ENE,11.5,-,N/A,,Partly Cloudy,70,2013-05-01 12:54:00
9:54 AM,61.0,32.0,34,30.42,10.0,ENE,8.1,-,N/A,,Partly Cloudy,70,2013-05-01 13:54:00
10:54 AM,64.0,33.1,31,30.43,10.0,ENE,11.5,-,N/A,,Partly Cloudy,70,2013-05-01 14:54:00
11:54 AM,66.0,34.0,30,30.42,10.0,East,12.7,-,N/A,,Clear,80,2013-05-01 15:54:00
12:54 PM,68.0,32.0,26,30.41,10.0,East,11.5,-,N/A,,Clear,80,2013-05-01 16:54:00
1:54 PM,69.1,35.1,29,30.40,10.0,East,12.7,-,N/A,,Partly Cloudy,90,2013-05-01 17:54:00
2:54 PM,69.1,36.0,30,30.40,10.0,East,13.8,-,N/A,,Partly Cloudy,90,2013-05-01 18:54:00
3:54 PM,68.0,41.0,37,30.41,10.0,East,12.7,-,N/A,,Partly Cloudy,90,2013-05-01 19:54:00
4:54 PM,66.0,39.9,38,30.41,10.0,East,13.8,-,N/A,,Clear,80,2013-05-01 20:54:00
5:54 PM,64.9,41.0,42,30.43,10.0,East,9.2,-,N/A,,Clear,90,2013-05-01 21:54:00
6:54 PM,63.0,41.0,45,30.44,10.0,East,8.1,-,N/A,,Partly Cloudy,90,2013-05-01 22:54:00
7:54 PM,59.0,41.0,51,30.45,10.0,East,11.5,-,N/A,,Partly Cloudy,90,2013-05-01 23:54:00
8:54 PM,57.0,41.0,55,30.46,10.0,East,9.2,-,N/A,,Clear,90,2013-05-02 00:54:00
9:54 PM,55.0,41.0,59,30.47,10.0,East,8.1,-,N/A,,Clear,80,2013-05-02 01:54:00
10:54 PM,53.1,43.0,69,30.47,10.0,East,8.1,-,N/A,,Clear,80,2013-05-02 02:54:00
11:54 PM,51.1,42.1,71,30.46,10.0,ENE,8.1,-,N/A,,Clear,60,2013-05-02 03:54:00